createdAt,value
2018-07-06T00:02:09.654Z,8.57
2018-07-06T00:04:54.361Z,7.90
2018-07-06T00:07:34.770Z,7.77
2018-07-06T00:10:14.224Z,9.30
2018-07-06T00:12:53.492Z,8.00
2018-07-06T00:15:32.807Z,7.90
2018-07-06T00:18:11.901Z,7.90
2018-07-06T00:20:51.106Z,7.80
2018-07-06T00:23:30.452Z,7.40
2018-07-06T00:26:09.751Z,8.20
2018-07-06T00:28:49.334Z,7.80
2018-07-06T00:31:28.586Z,7.80
2018-07-06T00:34:08.126Z,7.80
2018-07-06T00:36:47.591Z,8.23
2018-07-06T00:39:26.768Z,7.60
2018-07-06T00:42:06.373Z,7.50
2018-07-06T00:44:45.655Z,8.40
2018-07-06T00:47:24.844Z,7.70
2018-07-06T00:50:04.098Z,7.27
2018-07-06T00:52:43.940Z,7.10
2018-07-06T00:55:23.296Z,8.10
2018-07-06T00:58:02.597Z,7.30
2018-07-06T01:00:41.716Z,7.30
2018-07-06T01:03:21.008Z,8.40
2018-07-06T01:06:00.383Z,7.40
2018-07-06T01:08:39.570Z,7.90
2018-07-06T01:11:18.913Z,6.87
2018-07-06T01:13:59.328Z,8.17
2018-07-06T01:16:38.526Z,8.07
2018-07-06T01:19:17.856Z,7.30
2018-07-06T01:21:56.992Z,8.03
2018-07-06T01:24:36.307Z,7.00
2018-07-06T01:27:09.699Z,8.00
2018-07-06T01:29:49.111Z,7.20
2018-07-06T01:32:29.218Z,8.00
2018-07-06T01:35:08.464Z,7.17
2018-07-06T01:37:47.733Z,8.93
2018-07-06T01:40:27.088Z,9.40
2018-07-06T01:43:06.612Z,10.13
2018-07-06T01:45:45.905Z,11.20
2018-07-06T01:48:25.156Z,10.77
2018-07-06T01:51:04.306Z,10.87
2018-07-06T01:53:43.590Z,11.97
2018-07-06T01:56:23.911Z,12.83
2018-07-06T01:59:03.327Z,11.90
2018-07-06T02:01:43.984Z,11.30
2018-07-06T02:04:23.391Z,11.70
2018-07-06T02:07:02.969Z,12.03
2018-07-06T02:09:42.171Z,12.43
2018-07-06T02:12:21.476Z,12.07
2018-07-06T02:15:00.671Z,11.60
2018-07-06T02:17:39.862Z,10.97
2018-07-06T02:20:19.267Z,12.03
2018-07-06T02:22:58.738Z,10.80
2018-07-06T02:25:38.051Z,11.20
2018-07-06T02:28:17.361Z,11.20
2018-07-06T02:30:56.620Z,10.30
2018-07-06T02:33:35.780Z,11.00
2018-07-06T02:36:14.997Z,10.60
2018-07-06T02:38:54.267Z,9.10
2018-07-06T02:41:33.291Z,10.20
2018-07-06T02:44:12.687Z,10.80
2018-07-06T02:46:51.871Z,10.10
2018-07-06T02:49:31.199Z,8.40
2018-07-06T02:52:10.599Z,9.53
2018-07-06T02:54:49.992Z,10.10
2018-07-06T02:57:29.248Z,10.17
2018-07-06T03:00:08.412Z,10.00
2018-07-06T03:02:47.510Z,10.30
2018-07-06T03:05:26.896Z,9.07
2018-07-06T03:08:06.143Z,8.27
2018-07-06T03:10:45.363Z,10.57
2018-07-06T03:13:24.617Z,10.87
2018-07-06T03:16:03.756Z,10.17
2018-07-06T03:18:42.856Z,10.73
2018-07-06T03:21:22.163Z,9.80
2018-07-06T03:24:01.469Z,9.77
2018-07-06T03:26:40.700Z,9.50
2018-07-06T03:29:20.040Z,10.53
2018-07-06T03:31:59.355Z,9.80
2018-07-06T03:34:38.730Z,10.43
2018-07-06T03:37:18.241Z,10.33
2018-07-06T03:39:57.514Z,10.13
2018-07-06T03:42:36.848Z,9.70
2018-07-06T03:45:16.021Z,10.63
2018-07-06T03:47:55.230Z,9.80
2018-07-06T03:50:34.420Z,8.27
2018-07-06T03:53:13.550Z,10.73
2018-07-06T03:55:52.803Z,10.60
2018-07-06T03:58:31.993Z,9.63
2018-07-06T04:01:11.283Z,9.37
2018-07-06T04:03:51.584Z,10.40
2018-07-06T04:06:30.838Z,9.93
2018-07-06T04:09:09.982Z,9.30
2018-07-06T04:11:49.382Z,9.70
2018-07-06T04:14:28.550Z,9.57
2018-07-06T04:17:07.790Z,9.10
2018-07-06T04:19:46.969Z,9.33
2018-07-06T04:22:30.431Z,9.47
2018-07-06T04:25:09.486Z,9.47
2018-07-06T04:27:48.690Z,8.60
2018-07-06T04:30:27.649Z,8.30
2018-07-06T04:33:06.743Z,8.37
2018-07-06T04:35:45.845Z,7.77
2018-07-06T04:38:25.593Z,8.50
2018-07-06T04:41:04.796Z,8.23
2018-07-06T04:43:43.938Z,7.73
2018-07-06T04:46:17.334Z,7.83
2018-07-06T04:48:56.589Z,8.47
2018-07-06T04:51:35.781Z,8.60
2018-07-06T04:54:14.993Z,8.17
2018-07-06T04:56:54.477Z,7.83
2018-07-06T04:59:33.497Z,7.53
2018-07-06T05:02:12.384Z,7.83
2018-07-06T05:04:51.519Z,8.57
2018-07-06T05:07:30.631Z,7.80
2018-07-06T05:10:09.606Z,8.17
2018-07-06T05:12:48.606Z,7.77
2018-07-06T05:15:27.826Z,7.87
2018-07-06T05:18:01.171Z,8.70
2018-07-06T05:20:40.294Z,7.97
2018-07-06T05:23:19.296Z,8.53
2018-07-06T05:25:58.524Z,7.67
2018-07-06T05:28:37.675Z,7.27
2018-07-06T05:31:16.906Z,7.60
2018-07-06T05:33:55.920Z,7.90
2018-07-06T05:36:35.157Z,8.17
2018-07-06T05:39:14.594Z,8.27
2018-07-06T05:41:53.556Z,8.50
2018-07-06T05:44:32.726Z,8.37
2018-07-06T05:47:11.964Z,8.53
2018-07-06T05:49:51.140Z,8.13
2018-07-06T05:52:30.335Z,9.33
2018-07-06T05:55:03.963Z,8.37
2018-07-06T05:57:43.412Z,8.17
2018-07-06T06:00:22.590Z,8.57
2018-07-06T06:03:02.572Z,8.03
2018-07-06T06:05:41.940Z,8.73
2018-07-06T06:08:08.675Z,7.60
2018-07-06T06:10:36.757Z,7.90
2018-07-06T06:13:04.987Z,7.70
2018-07-06T06:15:33.052Z,7.93
2018-07-06T06:18:01.220Z,8.50
2018-07-06T06:20:29.885Z,7.93
2018-07-06T06:22:58.028Z,8.50
2018-07-06T06:25:27.205Z,8.40
2018-07-06T06:27:55.405Z,8.70
2018-07-06T06:30:23.478Z,8.30
2018-07-06T06:32:51.695Z,7.97
2018-07-06T06:35:22.131Z,8.60
2018-07-06T06:37:50.746Z,8.10
2018-07-06T06:40:18.929Z,8.00
2018-07-06T06:42:47.021Z,8.90
2018-07-06T06:45:15.692Z,8.57
2018-07-06T06:47:44.128Z,9.20
2018-07-06T06:50:16.455Z,8.97
2018-07-06T06:52:45.178Z,8.30
2018-07-06T06:55:13.464Z,7.83
2018-07-06T06:57:41.893Z,8.60
2018-07-06T07:00:15.356Z,10.47
2018-07-06T07:02:46.537Z,8.87
2018-07-06T07:05:16.629Z,8.43
2018-07-06T07:07:45.047Z,8.20
2018-07-06T07:10:18.114Z,8.10
2018-07-06T07:12:51.100Z,8.20
2018-07-06T07:15:21.113Z,7.37
2018-07-06T07:17:49.314Z,7.27
2018-07-06T07:20:25.920Z,7.83
2018-07-06T07:22:57.034Z,6.47
2018-07-06T07:25:27.506Z,6.73
2018-07-06T07:27:56.767Z,6.63
2018-07-06T07:30:25.461Z,6.70
2018-07-06T07:32:53.850Z,6.13
2018-07-06T07:35:22.755Z,6.60
2018-07-06T07:37:51.857Z,6.63
2018-07-06T07:40:21.594Z,5.30
2018-07-06T07:42:52.720Z,7.30
2018-07-06T07:45:21.659Z,9.60
2018-07-06T07:47:53.190Z,10.43
2018-07-06T07:50:23.924Z,9.67
2018-07-06T07:53:04.902Z,9.67
2018-07-06T07:55:33.507Z,10.57
2018-07-06T07:58:02.331Z,9.30
2018-07-06T08:00:31.079Z,9.70
2018-07-06T08:03:00.778Z,8.87
2018-07-06T08:05:29.967Z,7.67
2018-07-06T08:08:00.731Z,7.67
2018-07-06T08:10:33.681Z,8.20
2018-07-06T08:13:03.906Z,9.40
2018-07-06T08:15:34.510Z,6.80
2018-07-06T08:18:02.665Z,11.97
2018-07-06T08:20:32.943Z,12.43
2018-07-06T08:23:02.187Z,11.57
2018-07-06T08:25:31.331Z,11.30
2018-07-06T08:28:01.010Z,11.70
2018-07-06T08:30:31.764Z,12.67
2018-07-06T08:32:59.910Z,15.50
2018-07-06T08:35:39.021Z,18.10
2018-07-06T08:38:07.119Z,18.47
2018-07-06T08:40:35.313Z,17.57
2018-07-06T08:43:04.551Z,18.70
2018-07-06T08:45:33.459Z,20.37
2018-07-06T08:48:02.331Z,21.20
2018-07-06T08:50:30.556Z,22.60
2018-07-06T08:52:58.713Z,21.87
2018-07-06T08:55:27.705Z,21.60
2018-07-06T08:57:56.987Z,20.73
2018-07-06T09:00:25.239Z,19.10
2018-07-06T09:02:53.455Z,21.57
2018-07-06T09:05:21.685Z,21.03
2018-07-06T09:07:50.093Z,22.00
2018-07-06T09:10:19.283Z,21.17
2018-07-06T09:12:47.464Z,20.90
2018-07-06T09:15:15.625Z,19.87
2018-07-06T09:17:44.815Z,22.53
2018-07-06T09:20:12.902Z,20.27
2018-07-06T09:22:41.201Z,20.10
2018-07-06T09:25:09.167Z,19.63
2018-07-06T09:27:37.186Z,25.20
2018-07-06T09:30:05.384Z,18.73
2018-07-06T09:32:34.552Z,18.57
2018-07-06T09:35:02.566Z,18.23
2018-07-06T09:37:30.840Z,18.20
2018-07-06T09:39:59.002Z,20.00
2018-07-06T09:42:27.279Z,20.90
2018-07-06T09:44:55.860Z,17.93
2018-07-06T09:47:24.516Z,17.77
2018-07-06T09:49:53.169Z,24.53
2018-07-06T09:52:21.307Z,19.67
2018-07-06T09:54:49.704Z,16.60
2018-07-06T09:57:18.312Z,16.27
2018-07-06T09:59:46.277Z,17.43
2018-07-06T10:02:15.342Z,14.67
2018-07-06T10:04:43.375Z,11.77
2018-07-06T10:07:11.353Z,11.87
2018-07-06T10:09:39.487Z,17.47
2018-07-06T10:12:07.663Z,13.47
2018-07-06T10:14:35.567Z,13.60
2018-07-06T10:17:03.495Z,12.87
2018-07-06T10:19:31.666Z,12.30
2018-07-06T10:21:59.861Z,11.17
2018-07-06T10:24:49.821Z,9.77
2018-07-06T10:27:17.986Z,9.87
2018-07-06T10:29:59.785Z,12.30
2018-07-06T10:32:30.699Z,12.50
2018-07-06T10:34:59.776Z,11.70
2018-07-06T10:37:28.619Z,9.70
2018-07-06T10:39:57.857Z,9.77
2018-07-06T10:42:26.204Z,10.30
2018-07-06T10:44:55.191Z,11.93
2018-07-06T10:47:23.409Z,10.50
2018-07-06T10:49:51.750Z,8.97
2018-07-06T10:52:19.999Z,9.80
2018-07-06T10:54:48.912Z,9.60
2018-07-06T10:57:16.950Z,7.47
2018-07-06T10:59:45.095Z,8.80
2018-07-06T11:02:13.097Z,8.57
2018-07-06T11:04:41.239Z,9.03
2018-07-06T11:07:09.493Z,8.10
2018-07-06T11:09:37.561Z,8.90
2018-07-06T11:12:06.527Z,8.40
2018-07-06T11:14:34.822Z,9.50
2018-07-06T11:17:02.806Z,9.27
2018-07-06T11:19:31.137Z,8.77
2018-07-06T11:21:59.486Z,8.10
2018-07-06T11:24:27.584Z,9.43
2018-07-06T11:26:55.944Z,9.83
2018-07-06T11:29:24.010Z,11.27
2018-07-06T11:31:52.093Z,9.80
2018-07-06T11:34:20.046Z,9.83
2018-07-06T11:36:48.051Z,8.77
2018-07-06T11:39:16.454Z,7.80
2018-07-06T11:41:47.152Z,7.13
2018-07-06T11:44:15.822Z,8.37
2018-07-06T11:46:43.979Z,8.00
2018-07-06T11:49:16.020Z,6.50
2018-07-06T11:51:44.055Z,6.70
2018-07-06T11:54:12.614Z,7.20
2018-07-06T11:56:40.764Z,7.40
2018-07-06T11:59:08.828Z,6.90
2018-07-06T12:01:36.954Z,6.13
2018-07-06T12:04:04.966Z,4.90
2018-07-06T12:06:32.842Z,5.90
2018-07-06T12:09:00.861Z,5.90
2018-07-06T12:11:28.992Z,5.67
2018-07-06T12:13:57.138Z,5.50
2018-07-06T12:16:25.117Z,5.20
2018-07-06T12:18:53.224Z,4.90
2018-07-06T12:21:21.357Z,5.87
2018-07-06T12:23:49.510Z,5.67
2018-07-06T12:26:17.523Z,7.10
2018-07-06T12:28:45.902Z,6.37
2018-07-06T12:31:14.232Z,6.27
2018-07-06T12:33:43.028Z,5.20
2018-07-06T12:36:20.738Z,5.13
2018-07-06T12:38:48.632Z,5.40
2018-07-06T12:41:17.389Z,6.10
2018-07-06T12:43:45.529Z,5.50
2018-07-06T12:46:13.785Z,6.13
2018-07-06T12:48:41.972Z,6.00
2018-07-06T12:51:10.320Z,6.50
2018-07-06T12:53:38.336Z,6.10
2018-07-06T12:56:06.438Z,5.50
2018-07-06T12:58:34.377Z,6.30
2018-07-06T13:01:02.399Z,5.90
2018-07-06T13:03:31.520Z,6.30
2018-07-06T13:05:59.608Z,6.30
2018-07-06T13:08:27.606Z,5.87
2018-07-06T13:10:55.787Z,5.60
2018-07-06T13:13:24.062Z,5.67
2018-07-06T13:15:52.120Z,5.87
2018-07-06T13:18:23.582Z,6.07
2018-07-06T13:20:51.895Z,5.50
2018-07-06T13:23:19.865Z,6.13
2018-07-06T13:25:47.887Z,5.43
2018-07-06T13:28:15.987Z,5.43
2018-07-06T13:30:43.947Z,6.00
2018-07-06T13:33:12.032Z,6.50
2018-07-06T13:35:40.185Z,5.33
2018-07-06T13:38:08.307Z,5.10
2018-07-06T13:40:36.729Z,5.20
2018-07-06T13:43:05.002Z,5.07
2018-07-06T13:45:33.212Z,5.13
2018-07-06T13:48:01.364Z,5.37
2018-07-06T13:50:29.735Z,5.47
2018-07-06T13:52:57.968Z,5.53
2018-07-06T13:55:26.312Z,4.60
2018-07-06T13:57:54.554Z,5.00
2018-07-06T14:00:22.827Z,4.97
2018-07-06T14:02:50.849Z,4.60
2018-07-06T14:05:18.929Z,4.97
2018-07-06T14:07:47.208Z,4.37
2018-07-06T14:10:15.301Z,4.40
2018-07-06T14:12:43.584Z,4.57
2018-07-06T14:15:11.658Z,4.30
2018-07-06T14:17:39.656Z,4.00
2018-07-06T14:20:07.785Z,4.37
2018-07-06T14:22:36.016Z,4.20
2018-07-06T14:25:04.002Z,4.97
2018-07-06T14:27:32.218Z,4.87
2018-07-06T14:30:00.354Z,5.00
2018-07-06T14:32:28.483Z,5.07
2018-07-06T14:34:56.787Z,5.87
2018-07-06T14:37:25.396Z,4.30
2018-07-06T14:39:53.497Z,5.03
2018-07-06T14:42:21.716Z,4.50
2018-07-06T14:44:49.745Z,5.00
2018-07-06T14:47:17.916Z,5.20
2018-07-06T14:49:45.889Z,4.77
2018-07-06T14:52:13.926Z,4.93
2018-07-06T14:54:48.031Z,4.47
2018-07-06T14:57:16.480Z,4.60
2018-07-06T14:59:44.567Z,3.47
2018-07-06T15:02:12.765Z,3.67
2018-07-06T15:04:40.727Z,3.90
2018-07-06T15:07:08.905Z,3.90
2018-07-06T15:09:36.652Z,4.03
2018-07-06T15:12:05.803Z,3.60
2018-07-06T15:14:34.097Z,3.60
2018-07-06T15:17:03.104Z,3.50
2018-07-06T15:19:32.204Z,2.87
2018-07-06T15:22:00.502Z,3.60
2018-07-06T15:24:29.577Z,3.47
2018-07-06T15:26:57.793Z,3.67
2018-07-06T15:29:26.551Z,3.50
2018-07-06T15:31:55.569Z,3.53
2018-07-06T15:34:24.730Z,3.60
2018-07-06T15:36:53.235Z,3.40
2018-07-06T15:39:21.478Z,4.00
2018-07-06T15:41:49.456Z,3.67
2018-07-06T15:44:17.453Z,4.17
2018-07-06T15:46:45.501Z,4.00
2018-07-06T15:49:13.629Z,4.33
2018-07-06T15:51:41.600Z,3.60
2018-07-06T15:54:09.665Z,3.70
2018-07-06T15:56:37.761Z,3.60
2018-07-06T15:59:11.339Z,3.20
2018-07-06T16:01:39.468Z,3.27
2018-07-06T16:04:07.573Z,3.03
2018-07-06T16:06:35.798Z,3.40
2018-07-06T16:09:04.131Z,2.70
2018-07-06T16:11:32.042Z,2.60
2018-07-06T16:14:00.185Z,2.70
2018-07-06T16:16:28.429Z,2.93
2018-07-06T16:18:56.569Z,2.80
2018-07-06T16:21:24.949Z,2.77
2018-07-06T16:23:53.230Z,2.50
2018-07-06T16:26:21.342Z,2.50
2018-07-06T16:28:49.512Z,4.23
2018-07-06T16:31:17.284Z,3.00
2018-07-06T16:33:45.342Z,2.70
2018-07-06T16:36:13.400Z,2.70
2018-07-06T16:38:41.352Z,2.60
2018-07-06T16:41:09.378Z,2.97
2018-07-06T16:43:37.414Z,2.40
2018-07-06T16:46:05.558Z,2.60
2018-07-06T16:48:33.677Z,2.77
2018-07-06T16:51:02.109Z,3.00
2018-07-06T16:53:30.072Z,2.60
2018-07-06T16:55:58.258Z,3.03
2018-07-06T16:58:26.519Z,3.00
2018-07-06T17:00:54.665Z,2.60
2018-07-06T17:03:23.182Z,2.20
2018-07-06T17:05:51.213Z,3.00
2018-07-06T17:08:19.273Z,2.70
2018-07-06T17:10:47.083Z,3.10
2018-07-06T17:13:15.073Z,2.70
2018-07-06T17:15:43.429Z,3.07
2018-07-06T17:18:11.544Z,2.67
2018-07-06T17:20:39.522Z,2.70
2018-07-06T17:23:07.436Z,2.77
2018-07-06T17:25:35.491Z,2.70
2018-07-06T17:28:03.515Z,2.60
2018-07-06T17:30:31.599Z,2.60
2018-07-06T17:33:00.047Z,3.00
2018-07-06T17:35:28.185Z,2.60
2018-07-06T17:37:56.243Z,2.80
2018-07-06T17:40:24.308Z,3.07
2018-07-06T17:42:52.216Z,2.70
2018-07-06T17:45:20.216Z,2.90
2018-07-06T17:47:48.154Z,2.97
2018-07-06T17:50:16.125Z,2.93
2018-07-06T17:52:44.107Z,3.10
2018-07-06T17:55:12.122Z,2.63
2018-07-06T17:57:53.754Z,2.77
2018-07-06T18:00:21.733Z,2.40
2018-07-06T18:02:49.679Z,2.33
2018-07-06T18:05:17.753Z,2.50
2018-07-06T18:07:45.729Z,2.30
2018-07-06T18:10:13.865Z,2.43
2018-07-06T18:12:42.027Z,2.30
2018-07-06T18:15:10.103Z,2.40
2018-07-06T18:17:38.304Z,2.60
2018-07-06T18:20:06.539Z,2.83
2018-07-06T18:22:35.009Z,2.50
2018-07-06T18:25:03.612Z,2.67
2018-07-06T18:27:31.735Z,2.50
2018-07-06T18:29:59.983Z,2.30
2018-07-06T18:32:31.905Z,2.60
2018-07-06T18:35:00.072Z,2.57
2018-07-06T18:37:28.497Z,2.60
2018-07-06T18:39:56.449Z,3.13
2018-07-06T18:42:24.548Z,2.60
2018-07-06T18:44:52.886Z,2.70
2018-07-06T18:47:20.893Z,2.70
2018-07-06T18:49:48.953Z,2.70
2018-07-06T18:52:17.101Z,2.93
2018-07-06T18:54:46.211Z,2.90
2018-07-06T18:57:14.560Z,2.37
2018-07-06T18:59:42.818Z,2.80
2018-07-06T19:02:11.390Z,2.60
2018-07-06T19:04:39.426Z,2.60
2018-07-06T19:07:08.057Z,2.57
2018-07-06T19:09:36.538Z,2.47
2018-07-06T19:12:06.074Z,2.80
2018-07-06T19:14:34.355Z,2.80
2018-07-06T19:17:02.658Z,2.70
2018-07-06T19:19:32.315Z,2.73
2018-07-06T19:22:16.754Z,2.57
2018-07-06T19:24:44.812Z,2.80
2018-07-06T19:27:12.991Z,3.00
2018-07-06T19:29:41.029Z,2.80
2018-07-06T19:32:09.246Z,2.90
2018-07-06T19:34:37.298Z,3.03
2018-07-06T19:37:05.387Z,2.87
2018-07-06T19:39:34.855Z,2.70
2018-07-06T19:42:03.004Z,2.90
2018-07-06T19:44:31.583Z,2.90
2018-07-06T19:47:00.267Z,2.93
2018-07-06T19:49:29.210Z,2.80
2018-07-06T19:52:00.102Z,2.80
2018-07-06T19:54:30.018Z,2.70
2018-07-06T19:56:59.538Z,3.30
2018-07-06T19:59:28.995Z,2.87
2018-07-06T20:01:58.584Z,2.90
2018-07-06T20:04:27.642Z,3.23
2018-07-06T20:06:56.963Z,3.30
2018-07-06T20:09:28.280Z,3.10
2018-07-06T20:11:58.363Z,3.07
2018-07-06T20:14:27.544Z,2.90
2018-07-06T20:16:58.798Z,2.90
2018-07-06T20:19:29.268Z,3.20
2018-07-06T20:22:01.193Z,3.17
2018-07-06T20:24:31.108Z,3.37
2018-07-06T20:26:59.516Z,3.40
2018-07-06T20:29:29.352Z,3.10
2018-07-06T20:31:58.422Z,3.10
2018-07-06T20:34:27.447Z,3.10
2018-07-06T20:36:56.174Z,2.77
2018-07-06T20:39:25.270Z,3.27
2018-07-06T20:41:54.425Z,3.50
2018-07-06T20:44:22.562Z,3.03
2018-07-06T20:46:50.850Z,3.20
2018-07-06T20:49:19.328Z,2.90
2018-07-06T20:51:47.604Z,3.40
2018-07-06T20:54:15.989Z,3.67
2018-07-06T20:56:44.240Z,3.57
2018-07-06T20:59:12.566Z,3.50
2018-07-06T21:01:40.775Z,3.60
2018-07-06T21:04:09.237Z,3.50
2018-07-06T21:06:37.167Z,4.20
2018-07-06T21:09:05.726Z,3.73
2018-07-06T21:11:33.854Z,4.77
2018-07-06T21:14:02.017Z,4.63
2018-07-06T21:16:30.561Z,4.83
2018-07-06T21:18:59.288Z,5.50
2018-07-06T21:21:28.762Z,4.90
2018-07-06T21:23:57.668Z,5.80
2018-07-06T21:26:49.072Z,5.30
2018-07-06T21:29:17.362Z,5.10
2018-07-06T21:31:45.297Z,5.33
2018-07-06T21:34:13.042Z,5.77
2018-07-06T21:36:41.088Z,6.90
2018-07-06T21:39:09.153Z,5.60
2018-07-06T21:41:37.097Z,5.70
2018-07-06T21:44:05.342Z,5.30
2018-07-06T21:46:33.440Z,4.87
2018-07-06T21:49:01.574Z,5.00
2018-07-06T21:51:35.297Z,4.90
2018-07-06T21:54:03.488Z,5.37
2018-07-06T21:56:33.253Z,5.53
2018-07-06T21:59:02.089Z,5.23
2018-07-06T22:01:30.210Z,5.13
2018-07-06T22:03:58.356Z,5.10
2018-07-06T22:06:27.063Z,5.77
2018-07-06T22:09:01.041Z,4.90
2018-07-06T22:11:32.094Z,4.40
2018-07-06T22:14:02.168Z,4.60
2018-07-06T22:16:34.473Z,4.97
2018-07-06T22:19:02.550Z,4.80
2018-07-06T22:21:30.509Z,4.47
2018-07-06T22:23:59.577Z,5.20
2018-07-06T22:26:27.740Z,4.77
2018-07-06T22:28:55.989Z,4.70
2018-07-06T22:31:24.171Z,5.17
2018-07-06T22:33:52.413Z,5.43
2018-07-06T22:36:20.389Z,5.43
2018-07-06T22:38:48.185Z,5.13
2018-07-06T22:41:16.112Z,5.73
2018-07-06T22:43:44.307Z,5.13
2018-07-06T22:46:12.317Z,5.10
2018-07-06T22:48:40.224Z,5.00
2018-07-06T22:51:08.292Z,5.20
2018-07-06T22:53:36.278Z,5.80
2018-07-06T22:56:04.239Z,4.70
2018-07-06T22:58:32.335Z,4.63
2018-07-06T23:01:00.383Z,4.90
2018-07-06T23:03:28.703Z,5.80
2018-07-06T23:05:56.872Z,5.20
2018-07-06T23:08:24.955Z,5.27
2018-07-06T23:10:53.049Z,5.13
2018-07-06T23:13:21.049Z,5.37
2018-07-06T23:15:48.981Z,5.40
2018-07-06T23:18:16.942Z,5.93
2018-07-06T23:20:45.992Z,4.97
2018-07-06T23:23:14.341Z,5.40
2018-07-06T23:25:44.336Z,5.50
2018-07-06T23:28:12.520Z,5.30
2018-07-06T23:30:40.537Z,5.00
2018-07-06T23:33:09.183Z,5.70
2018-07-06T23:35:37.238Z,5.23
2018-07-06T23:38:05.405Z,6.10
2018-07-06T23:40:33.555Z,6.13
2018-07-06T23:43:09.698Z,5.83
2018-07-06T23:45:37.773Z,6.17
2018-07-06T23:48:05.746Z,6.00
2018-07-06T23:50:39.634Z,6.30
2018-07-06T23:53:07.601Z,5.60
2018-07-06T23:55:35.597Z,5.67
2018-07-06T23:58:03.649Z,5.37
